sensor_id;sensor_type;location;lat;lon;timestamp;temperature;humidity
14877;DHT22;69691;48.172;17.070;2023-06-14T00:00:21;14.90;73.40
14877;DHT22;69691;48.172;17.070;2023-06-14T00:02:48;14.90;73.40
14877;DHT22;69691;48.172;17.070;2023-06-14T00:05:13;14.90;73.50
14877;DHT22;69691;48.172;17.070;2023-06-14T00:07:40;14.90;73.50
14877;DHT22;69691;48.172;17.070;2023-06-14T00:10:08;15.00;73.10
14877;DHT22;69691;48.172;17.070;2023-06-14T00:12:35;15.00;72.80
14877;DHT22;69691;48.172;17.070;2023-06-14T00:15:02;15.00;72.20
14877;DHT22;69691;48.172;17.070;2023-06-14T00:17:28;15.00;71.80
14877;DHT22;69691;48.172;17.070;2023-06-14T00:19:58;15.00;72.10
14877;DHT22;69691;48.172;17.070;2023-06-14T00:22:25;15.00;72.30
14877;DHT22;69691;48.172;17.070;2023-06-14T00:24:51;15.00;71.60
14877;DHT22;69691;48.172;17.070;2023-06-14T00:27:17;15.00;71.30
14877;DHT22;69691;48.172;17.070;2023-06-14T00:29:43;15.00;71.60
14877;DHT22;69691;48.172;17.070;2023-06-14T00:32:09;15.00;71.20
14877;DHT22;69691;48.172;17.070;2023-06-14T00:34:35;15.00;71.30
14877;DHT22;69691;48.172;17.070;2023-06-14T00:37:01;15.00;71.70
14877;DHT22;69691;48.172;17.070;2023-06-14T00:39:27;15.00;70.80
14877;DHT22;69691;48.172;17.070;2023-06-14T00:41:58;15.00;70.50
14877;DHT22;69691;48.172;17.070;2023-06-14T00:44:25;15.00;70.40
14877;DHT22;69691;48.172;17.070;2023-06-14T00:46:51;15.00;70.50
14877;DHT22;69691;48.172;17.070;2023-06-14T00:49:17;14.90;70.30
14877;DHT22;69691;48.172;17.070;2023-06-14T00:51:45;14.90;70.60
14877;DHT22;69691;48.172;17.070;2023-06-14T00:54:11;14.90;70.80
14877;DHT22;69691;48.172;17.070;2023-06-14T00:56:37;14.90;70.90
14877;DHT22;69691;48.172;17.070;2023-06-14T00:59:04;14.90;70.70
14877;DHT22;69691;48.172;17.070;2023-06-14T01:01:30;14.90;70.50
14877;DHT22;69691;48.172;17.070;2023-06-14T01:04:00;14.80;70.00
14877;DHT22;69691;48.172;17.070;2023-06-14T01:06:50;14.80;70.90
14877;DHT22;69691;48.172;17.070;2023-06-14T01:10:03;14.80;71.00
14877;DHT22;69691;48.172;17.070;2023-06-14T01:15:25;14.70;71.90
14877;DHT22;69691;48.172;17.070;2023-06-14T01:17:52;14.70;71.40
14877;DHT22;69691;48.172;17.070;2023-06-14T01:20:20;14.70;71.30
14877;DHT22;69691;48.172;17.070;2023-06-14T01:22:53;14.70;71.20
14877;DHT22;69691;48.172;17.070;2023-06-14T01:25:20;14.60;71.30
14877;DHT22;69691;48.172;17.070;2023-06-14T01:27:57;14.60;71.10
14877;DHT22;69691;48.172;17.070;2023-06-14T01:30:25;14.50;72.30
14877;DHT22;69691;48.172;17.070;2023-06-14T01:32:52;14.50;72.30
14877;DHT22;69691;48.172;17.070;2023-06-14T01:35:20;14.50;72.20
14877;DHT22;69691;48.172;17.070;2023-06-14T01:37:49;14.50;72.00
14877;DHT22;69691;48.172;17.070;2023-06-14T01:40:15;14.50;72.80
14877;DHT22;69691;48.172;17.070;2023-06-14T01:42:46;14.40;72.80
14877;DHT22;69691;48.172;17.070;2023-06-14T01:45:14;14.40;73.30
14877;DHT22;69691;48.172;17.070;2023-06-14T01:47:41;14.40;73.70
14877;DHT22;69691;48.172;17.070;2023-06-14T01:50:08;14.40;74.10
14877;DHT22;69691;48.172;17.070;2023-06-14T01:52:37;14.40;74.20
14877;DHT22;69691;48.172;17.070;2023-06-14T01:55:04;14.40;74.40
14877;DHT22;69691;48.172;17.070;2023-06-14T01:57:31;14.40;74.80
14877;DHT22;69691;48.172;17.070;2023-06-14T01:59:58;14.40;75.20
14877;DHT22;69691;48.172;17.070;2023-06-14T02:02:24;14.50;75.50
14877;DHT22;69691;48.172;17.070;2023-06-14T02:04:50;14.50;75.60
14877;DHT22;69691;48.172;17.070;2023-06-14T02:07:16;14.50;75.40
14877;DHT22;69691;48.172;17.070;2023-06-14T02:09:42;14.50;75.50
14877;DHT22;69691;48.172;17.070;2023-06-14T02:12:08;14.50;75.70
14877;DHT22;69691;48.172;17.070;2023-06-14T02:14:34;14.50;75.90
14877;DHT22;69691;48.172;17.070;2023-06-14T02:17:00;14.50;76.20
14877;DHT22;69691;48.172;17.070;2023-06-14T02:19:26;14.50;76.40
14877;DHT22;69691;48.172;17.070;2023-06-14T02:21:52;14.50;76.80
14877;DHT22;69691;48.172;17.070;2023-06-14T02:24:18;14.60;77.40
14877;DHT22;69691;48.172;17.070;2023-06-14T02:26:44;14.60;76.60
14877;DHT22;69691;48.172;17.070;2023-06-14T02:29:14;14.70;76.60
14877;DHT22;69691;48.172;17.070;2023-06-14T02:31:41;14.70;76.80
14877;DHT22;69691;48.172;17.070;2023-06-14T02:34:07;14.70;76.80
14877;DHT22;69691;48.172;17.070;2023-06-14T02:36:36;14.70;77.00
14877;DHT22;69691;48.172;17.070;2023-06-14T02:39:10;14.70;76.90
14877;DHT22;69691;48.172;17.070;2023-06-14T02:41:36;14.80;77.30
14877;DHT22;69691;48.172;17.070;2023-06-14T02:44:01;14.80;77.20
14877;DHT22;69691;48.172;17.070;2023-06-14T02:46:28;14.80;77.20
14877;DHT22;69691;48.172;17.070;2023-06-14T02:48:54;14.80;76.90
14877;DHT22;69691;48.172;17.070;2023-06-14T02:51:20;14.80;77.00
14877;DHT22;69691;48.172;17.070;2023-06-14T02:53:45;14.80;76.90
14877;DHT22;69691;48.172;17.070;2023-06-14T02:56:11;14.80;77.00
14877;DHT22;69691;48.172;17.070;2023-06-14T02:58:38;14.80;76.90
14877;DHT22;69691;48.172;17.070;2023-06-14T03:01:05;14.90;77.30
14877;DHT22;69691;48.172;17.070;2023-06-14T03:03:34;14.90;77.40
14877;DHT22;69691;48.172;17.070;2023-06-14T03:05:59;15.00;77.10
14877;DHT22;69691;48.172;17.070;2023-06-14T03:08:31;15.00;76.70
14877;DHT22;69691;48.172;17.070;2023-06-14T03:11:05;15.10;76.60
14877;DHT22;69691;48.172;17.070;2023-06-14T03:13:34;15.10;77.40
14877;DHT22;69691;48.172;17.070;2023-06-14T03:16:02;15.20;76.50
14877;DHT22;69691;48.172;17.070;2023-06-14T03:18:30;15.20;76.30
14877;DHT22;69691;48.172;17.070;2023-06-14T03:20:57;15.30;75.90
14877;DHT22;69691;48.172;17.070;2023-06-14T03:23:24;15.30;75.20
14877;DHT22;69691;48.172;17.070;2023-06-14T03:25:51;15.40;75.60
14877;DHT22;69691;48.172;17.070;2023-06-14T03:28:17;15.40;75.30
14877;DHT22;69691;48.172;17.070;2023-06-14T03:30:43;15.50;75.20
14877;DHT22;69691;48.172;17.070;2023-06-14T03:33:09;15.50;75.40
14877;DHT22;69691;48.172;17.070;2023-06-14T03:35:38;15.60;74.10
14877;DHT22;69691;48.172;17.070;2023-06-14T03:38:04;15.70;72.80
14877;DHT22;69691;48.172;17.070;2023-06-14T03:40:30;15.80;72.80
14877;DHT22;69691;48.172;17.070;2023-06-14T03:43:01;15.90;73.00
14877;DHT22;69691;48.172;17.070;2023-06-14T03:45:27;15.90;72.60
14877;DHT22;69691;48.172;17.070;2023-06-14T03:47:54;15.90;73.00
14877;DHT22;69691;48.172;17.070;2023-06-14T03:50:20;15.90;72.80
14877;DHT22;69691;48.172;17.070;2023-06-14T03:52:48;16.10;73.10
14877;DHT22;69691;48.172;17.070;2023-06-14T03:55:15;16.10;72.90
14877;DHT22;69691;48.172;17.070;2023-06-14T03:57:42;16.10;72.70
14877;DHT22;69691;48.172;17.070;2023-06-14T04:00:11;16.10;72.10
14877;DHT22;69691;48.172;17.070;2023-06-14T04:02:40;16.10;72.00
14877;DHT22;69691;48.172;17.070;2023-06-14T04:05:08;16.20;71.50
14877;DHT22;69691;48.172;17.070;2023-06-14T04:07:36;16.20;71.70
14877;DHT22;69691;48.172;17.070;2023-06-14T04:10:08;16.20;70.60
14877;DHT22;69691;48.172;17.070;2023-06-14T04:12:34;16.30;70.80
14877;DHT22;69691;48.172;17.070;2023-06-14T04:15:00;16.30;71.40
14877;DHT22;69691;48.172;17.070;2023-06-14T04:17:28;16.30;71.30
14877;DHT22;69691;48.172;17.070;2023-06-14T04:19:55;16.40;72.10
14877;DHT22;69691;48.172;17.070;2023-06-14T04:22:21;16.40;71.70
14877;DHT22;69691;48.172;17.070;2023-06-14T04:24:47;16.50;70.60
14877;DHT22;69691;48.172;17.070;2023-06-14T04:27:13;16.50;69.40
14877;DHT22;69691;48.172;17.070;2023-06-14T04:29:40;16.60;67.80
14877;DHT22;69691;48.172;17.070;2023-06-14T04:32:11;16.70;67.00
14877;DHT22;69691;48.172;17.070;2023-06-14T04:34:39;16.80;65.60
14877;DHT22;69691;48.172;17.070;2023-06-14T04:37:05;16.80;65.50
14877;DHT22;69691;48.172;17.070;2023-06-14T04:39:38;16.90;66.30
14877;DHT22;69691;48.172;17.070;2023-06-14T04:42:05;16.90;66.40
14877;DHT22;69691;48.172;17.070;2023-06-14T04:44:33;17.00;66.40
14877;DHT22;69691;48.172;17.070;2023-06-14T04:47:02;17.10;65.80
14877;DHT22;69691;48.172;17.070;2023-06-14T04:49:28;17.10;65.00
14877;DHT22;69691;48.172;17.070;2023-06-14T04:51:56;17.20;65.30
14877;DHT22;69691;48.172;17.070;2023-06-14T04:54:31;17.30;65.50
14877;DHT22;69691;48.172;17.070;2023-06-14T04:56:59;17.30;65.50
14877;DHT22;69691;48.172;17.070;2023-06-14T04:59:26;17.40;64.90
14877;DHT22;69691;48.172;17.070;2023-06-14T05:01:52;17.50;64.40
14877;DHT22;69691;48.172;17.070;2023-06-14T05:04:19;17.50;63.40
14877;DHT22;69691;48.172;17.070;2023-06-14T05:06:46;17.60;62.50
14877;DHT22;69691;48.172;17.070;2023-06-14T05:09:15;17.70;62.40
14877;DHT22;69691;48.172;17.070;2023-06-14T05:11:43;17.70;62.80
14877;DHT22;69691;48.172;17.070;2023-06-14T05:14:11;18.10;62.20
14877;DHT22;69691;48.172;17.070;2023-06-14T05:16:37;18.70;61.00
14877;DHT22;69691;48.172;17.070;2023-06-14T05:19:03;19.50;60.10
14877;DHT22;69691;48.172;17.070;2023-06-14T05:21:32;20.10;58.30
14877;DHT22;69691;48.172;17.070;2023-06-14T05:24:00;20.80;56.90
14877;DHT22;69691;48.172;17.070;2023-06-14T05:26:26;21.40;55.60
14877;DHT22;69691;48.172;17.070;2023-06-14T05:28:56;21.80;54.10
14877;DHT22;69691;48.172;17.070;2023-06-14T05:31:24;22.30;53.00
14877;DHT22;69691;48.172;17.070;2023-06-14T05:33:52;22.70;52.00
14877;DHT22;69691;48.172;17.070;2023-06-14T05:36:19;23.10;51.00
14877;DHT22;69691;48.172;17.070;2023-06-14T05:38:46;23.40;49.10
14877;DHT22;69691;48.172;17.070;2023-06-14T05:41:12;23.60;47.60
14877;DHT22;69691;48.172;17.070;2023-06-14T05:43:39;23.80;47.00
14877;DHT22;69691;48.172;17.070;2023-06-14T05:46:05;24.00;46.50
14877;DHT22;69691;48.172;17.070;2023-06-14T05:48:31;24.30;46.30
14877;DHT22;69691;48.172;17.070;2023-06-14T05:50:57;24.20;45.00
14877;DHT22;69691;48.172;17.070;2023-06-14T05:53:23;24.20;47.00
14877;DHT22;69691;48.172;17.070;2023-06-14T05:55:50;24.30;48.00
14877;DHT22;69691;48.172;17.070;2023-06-14T05:58:21;24.50;48.20
14877;DHT22;69691;48.172;17.070;2023-06-14T06:00:47;24.60;48.80
14877;DHT22;69691;48.172;17.070;2023-06-14T06:03:13;24.70;48.30
14877;DHT22;69691;48.172;17.070;2023-06-14T06:05:39;24.90;47.80
14877;DHT22;69691;48.172;17.070;2023-06-14T06:08:05;25.10;47.50
14877;DHT22;69691;48.172;17.070;2023-06-14T06:10:31;25.20;46.80
14877;DHT22;69691;48.172;17.070;2023-06-14T06:12:57;25.30;46.70
14877;DHT22;69691;48.172;17.070;2023-06-14T06:15:23;25.40;46.80
14877;DHT22;69691;48.172;17.070;2023-06-14T06:17:49;25.40;46.60
14877;DHT22;69691;48.172;17.070;2023-06-14T06:20:16;25.50;46.60
14877;DHT22;69691;48.172;17.070;2023-06-14T06:22:43;25.60;46.00
14877;DHT22;69691;48.172;17.070;2023-06-14T06:25:09;25.50;45.50
14877;DHT22;69691;48.172;17.070;2023-06-14T06:27:35;25.40;45.60
14877;DHT22;69691;48.172;17.070;2023-06-14T06:30:03;25.50;44.90
14877;DHT22;69691;48.172;17.070;2023-06-14T06:32:31;25.60;44.60
14877;DHT22;69691;48.172;17.070;2023-06-14T06:34:56;25.80;44.70
14877;DHT22;69691;48.172;17.070;2023-06-14T06:37:22;26.00;44.30
14877;DHT22;69691;48.172;17.070;2023-06-14T06:39:49;26.10;43.90
14877;DHT22;69691;48.172;17.070;2023-06-14T06:42:19;26.30;43.00
14877;DHT22;69691;48.172;17.070;2023-06-14T06:44:49;26.40;43.10
14877;DHT22;69691;48.172;17.070;2023-06-14T06:47:15;26.40;43.10
14877;DHT22;69691;48.172;17.070;2023-06-14T06:49:41;26.50;42.80
14877;DHT22;69691;48.172;17.070;2023-06-14T06:52:07;26.50;42.20
14877;DHT22;69691;48.172;17.070;2023-06-14T06:54:33;26.50;42.00
14877;DHT22;69691;48.172;17.070;2023-06-14T06:57:01;26.50;42.20
14877;DHT22;69691;48.172;17.070;2023-06-14T06:59:27;26.50;42.30
14877;DHT22;69691;48.172;17.070;2023-06-14T07:01:53;26.50;42.20
14877;DHT22;69691;48.172;17.070;2023-06-14T07:04:19;26.60;42.20
14877;DHT22;69691;48.172;17.070;2023-06-14T07:06:46;26.60;42.20
14877;DHT22;69691;48.172;17.070;2023-06-14T07:09:12;26.60;42.40
14877;DHT22;69691;48.172;17.070;2023-06-14T07:11:41;26.40;42.60
14877;DHT22;69691;48.172;17.070;2023-06-14T07:14:09;26.50;43.10
14877;DHT22;69691;48.172;17.070;2023-06-14T07:16:35;26.40;43.20
14877;DHT22;69691;48.172;17.070;2023-06-14T07:19:02;26.40;43.30
14877;DHT22;69691;48.172;17.070;2023-06-14T07:21:28;26.30;43.60
14877;DHT22;69691;48.172;17.070;2023-06-14T07:23:55;26.30;43.80
14877;DHT22;69691;48.172;17.070;2023-06-14T07:26:22;26.40;43.80
14877;DHT22;69691;48.172;17.070;2023-06-14T07:28:48;26.40;43.70
14877;DHT22;69691;48.172;17.070;2023-06-14T07:31:17;26.20;43.80
14877;DHT22;69691;48.172;17.070;2023-06-14T07:33:45;26.20;44.00
14877;DHT22;69691;48.172;17.070;2023-06-14T07:36:11;26.10;44.20
14877;DHT22;69691;48.172;17.070;2023-06-14T07:38:37;26.00;44.40
14877;DHT22;69691;48.172;17.070;2023-06-14T07:41:03;25.80;44.40
14877;DHT22;69691;48.172;17.070;2023-06-14T07:43:29;25.80;44.80
14877;DHT22;69691;48.172;17.070;2023-06-14T07:45:55;25.90;44.60
14877;DHT22;69691;48.172;17.070;2023-06-14T07:48:21;26.00;44.60
14877;DHT22;69691;48.172;17.070;2023-06-14T07:50:47;26.10;43.90
14877;DHT22;69691;48.172;17.070;2023-06-14T07:53:12;26.10;44.20
14877;DHT22;69691;48.172;17.070;2023-06-14T07:55:38;26.10;44.20
14877;DHT22;69691;48.172;17.070;2023-06-14T07:58:06;26.20;44.00
14877;DHT22;69691;48.172;17.070;2023-06-14T08:00:32;26.30;43.90
14877;DHT22;69691;48.172;17.070;2023-06-14T08:02:58;26.40;42.80
14877;DHT22;69691;48.172;17.070;2023-06-14T08:05:25;26.50;42.70
14877;DHT22;69691;48.172;17.070;2023-06-14T08:07:52;26.50;41.40
14877;DHT22;69691;48.172;17.070;2023-06-14T08:10:18;26.70;40.90
14877;DHT22;69691;48.172;17.070;2023-06-14T08:12:44;26.70;40.20
14877;DHT22;69691;48.172;17.070;2023-06-14T08:15:10;26.70;39.70
14877;DHT22;69691;48.172;17.070;2023-06-14T08:17:36;26.60;39.70
14877;DHT22;69691;48.172;17.070;2023-06-14T08:20:03;26.60;39.60
14877;DHT22;69691;48.172;17.070;2023-06-14T08:22:30;26.70;39.10
14877;DHT22;69691;48.172;17.070;2023-06-14T08:25:02;26.60;39.60
14877;DHT22;69691;48.172;17.070;2023-06-14T08:27:30;26.70;39.30
14877;DHT22;69691;48.172;17.070;2023-06-14T08:29:56;26.80;39.30
14877;DHT22;69691;48.172;17.070;2023-06-14T08:32:22;26.90;39.10
14877;DHT22;69691;48.172;17.070;2023-06-14T08:34:48;27.00;38.90
14877;DHT22;69691;48.172;17.070;2023-06-14T08:37:14;27.10;38.90
14877;DHT22;69691;48.172;17.070;2023-06-14T08:39:41;27.20;39.00
14877;DHT22;69691;48.172;17.070;2023-06-14T08:42:07;27.20;39.30
14877;DHT22;69691;48.172;17.070;2023-06-14T08:44:34;27.50;38.90
14877;DHT22;69691;48.172;17.070;2023-06-14T08:47:00;27.60;38.30
14877;DHT22;69691;48.172;17.070;2023-06-14T08:49:29;27.80;37.90
14877;DHT22;69691;48.172;17.070;2023-06-14T08:51:58;28.00;37.60
14877;DHT22;69691;48.172;17.070;2023-06-14T08:54:28;28.00;37.50
14877;DHT22;69691;48.172;17.070;2023-06-14T08:57:02;28.00;37.80
14877;DHT22;69691;48.172;17.070;2023-06-14T08:59:30;27.70;38.30
14877;DHT22;69691;48.172;17.070;2023-06-14T09:01:59;27.60;38.90
14877;DHT22;69691;48.172;17.070;2023-06-14T09:04:25;27.50;39.60
14877;DHT22;69691;48.172;17.070;2023-06-14T09:07:05;27.40;39.80
14877;DHT22;69691;48.172;17.070;2023-06-14T09:09:32;27.10;39.60
14877;DHT22;69691;48.172;17.070;2023-06-14T09:12:00;26.90;39.30
14877;DHT22;69691;48.172;17.070;2023-06-14T09:14:26;26.80;38.90
14877;DHT22;69691;48.172;17.070;2023-06-14T09:16:53;26.60;38.00
14877;DHT22;69691;48.172;17.070;2023-06-14T09:19:26;26.50;37.90
14877;DHT22;69691;48.172;17.070;2023-06-14T09:21:54;26.30;37.80
14877;DHT22;69691;48.172;17.070;2023-06-14T09:24:21;26.20;37.80
14877;DHT22;69691;48.172;17.070;2023-06-14T09:26:51;26.30;37.70
14877;DHT22;69691;48.172;17.070;2023-06-14T09:29:18;26.30;37.80
14877;DHT22;69691;48.172;17.070;2023-06-14T09:31:46;26.30;38.60
14877;DHT22;69691;48.172;17.070;2023-06-14T09:34:12;26.50;37.80
14877;DHT22;69691;48.172;17.070;2023-06-14T09:36:40;26.80;37.70
14877;DHT22;69691;48.172;17.070;2023-06-14T09:39:08;27.20;37.10
14877;DHT22;69691;48.172;17.070;2023-06-14T09:41:39;27.20;36.80
14877;DHT22;69691;48.172;17.070;2023-06-14T09:44:07;27.20;36.60
14877;DHT22;69691;48.172;17.070;2023-06-14T09:46:35;27.10;36.10
14877;DHT22;69691;48.172;17.070;2023-06-14T09:49:03;27.10;37.00
14877;DHT22;69691;48.172;17.070;2023-06-14T09:51:29;27.00;38.00
14877;DHT22;69691;48.172;17.070;2023-06-14T09:54:00;26.90;38.10
14877;DHT22;69691;48.172;17.070;2023-06-14T09:56:28;26.80;38.00
14877;DHT22;69691;48.172;17.070;2023-06-14T09:58:58;26.60;37.50
14877;DHT22;69691;48.172;17.070;2023-06-14T10:01:27;26.40;38.10
14877;DHT22;69691;48.172;17.070;2023-06-14T10:04:02;26.30;38.40
14877;DHT22;69691;48.172;17.070;2023-06-14T10:06:30;26.00;38.80
14877;DHT22;69691;48.172;17.070;2023-06-14T10:08:58;25.90;38.70
14877;DHT22;69691;48.172;17.070;2023-06-14T10:11:28;25.90;39.10
14877;DHT22;69691;48.172;17.070;2023-06-14T10:13:58;25.80;38.90
14877;DHT22;69691;48.172;17.070;2023-06-14T10:16:32;25.90;38.10
14877;DHT22;69691;48.172;17.070;2023-06-14T10:19:21;26.00;38.10
14877;DHT22;69691;48.172;17.070;2023-06-14T10:22:12;25.90;38.30
14877;DHT22;69691;48.172;17.070;2023-06-14T10:24:43;25.80;39.00
14877;DHT22;69691;48.172;17.070;2023-06-14T10:27:10;25.80;39.00
14877;DHT22;69691;48.172;17.070;2023-06-14T10:32:23;25.60;39.50
14877;DHT22;69691;48.172;17.070;2023-06-14T10:34:57;25.80;39.30
14877;DHT22;69691;48.172;17.070;2023-06-14T10:37:30;25.90;39.10
14877;DHT22;69691;48.172;17.070;2023-06-14T10:39:56;26.00;38.70
14877;DHT22;69691;48.172;17.070;2023-06-14T10:42:32;26.00;38.30
14877;DHT22;69691;48.172;17.070;2023-06-14T10:44:59;26.00;38.20
14877;DHT22;69691;48.172;17.070;2023-06-14T10:47:32;26.00;38.40
14877;DHT22;69691;48.172;17.070;2023-06-14T10:50:06;26.10;38.40
14877;DHT22;69691;48.172;17.070;2023-06-14T10:52:35;26.30;38.50
14877;DHT22;69691;48.172;17.070;2023-06-14T10:55:17;26.40;38.00
14877;DHT22;69691;48.172;17.070;2023-06-14T10:57:44;26.50;37.70
14877;DHT22;69691;48.172;17.070;2023-06-14T11:00:13;26.60;37.70
14877;DHT22;69691;48.172;17.070;2023-06-14T11:02:56;26.70;37.40
14877;DHT22;69691;48.172;17.070;2023-06-14T11:08:40;27.10;37.60
14877;DHT22;69691;48.172;17.070;2023-06-14T11:11:11;27.30;37.10
14877;DHT22;69691;48.172;17.070;2023-06-14T11:13:41;27.50;37.00
14877;DHT22;69691;48.172;17.070;2023-06-14T11:16:15;27.80;36.80
14877;DHT22;69691;48.172;17.070;2023-06-14T11:18:42;27.90;36.60
14877;DHT22;69691;48.172;17.070;2023-06-14T11:21:09;27.90;36.80
14877;DHT22;69691;48.172;17.070;2023-06-14T11:23:36;27.80;36.70
14877;DHT22;69691;48.172;17.070;2023-06-14T11:26:02;27.70;36.40
14877;DHT22;69691;48.172;17.070;2023-06-14T11:28:40;27.80;36.50
14877;DHT22;69691;48.172;17.070;2023-06-14T11:31:07;27.90;36.10
14877;DHT22;69691;48.172;17.070;2023-06-14T11:33:34;27.90;35.50
14877;DHT22;69691;48.172;17.070;2023-06-14T11:36:02;27.80;36.30
14877;DHT22;69691;48.172;17.070;2023-06-14T11:38:34;27.70;37.70
14877;DHT22;69691;48.172;17.070;2023-06-14T11:41:00;27.70;36.90
14877;DHT22;69691;48.172;17.070;2023-06-14T11:43:27;27.60;37.00
14877;DHT22;69691;48.172;17.070;2023-06-14T11:45:52;27.50;38.10
14877;DHT22;69691;48.172;17.070;2023-06-14T11:48:18;27.50;37.20
14877;DHT22;69691;48.172;17.070;2023-06-14T11:50:49;27.50;37.40
14877;DHT22;69691;48.172;17.070;2023-06-14T11:53:16;27.40;37.40
14877;DHT22;69691;48.172;17.070;2023-06-14T11:55:43;27.30;37.50
14877;DHT22;69691;48.172;17.070;2023-06-14T11:58:11;27.50;37.60
14877;DHT22;69691;48.172;17.070;2023-06-14T12:00:37;27.80;37.10
14877;DHT22;69691;48.172;17.070;2023-06-14T12:03:03;28.00;36.90
14877;DHT22;69691;48.172;17.070;2023-06-14T12:05:30;28.10;37.30
14877;DHT22;69691;48.172;17.070;2023-06-14T12:07:59;28.10;37.60
14877;DHT22;69691;48.172;17.070;2023-06-14T12:10:27;28.20;37.90
14877;DHT22;69691;48.172;17.070;2023-06-14T12:12:57;28.20;37.10
14877;DHT22;69691;48.172;17.070;2023-06-14T12:15:27;28.20;37.60
14877;DHT22;69691;48.172;17.070;2023-06-14T12:17:54;28.30;37.90
14877;DHT22;69691;48.172;17.070;2023-06-14T12:20:20;28.20;36.00
14877;DHT22;69691;48.172;17.070;2023-06-14T12:22:54;28.10;36.10
14877;DHT22;69691;48.172;17.070;2023-06-14T12:25:28;27.90;35.90
14877;DHT22;69691;48.172;17.070;2023-06-14T12:28:03;27.70;36.30
14877;DHT22;69691;48.172;17.070;2023-06-14T12:30:31;27.30;36.10
14877;DHT22;69691;48.172;17.070;2023-06-14T12:32:57;27.20;36.30
14877;DHT22;69691;48.172;17.070;2023-06-14T12:35:23;27.30;36.40
14877;DHT22;69691;48.172;17.070;2023-06-14T12:37:49;27.50;36.90
14877;DHT22;69691;48.172;17.070;2023-06-14T12:40:15;27.60;36.70
14877;DHT22;69691;48.172;17.070;2023-06-14T12:42:41;27.80;37.50
14877;DHT22;69691;48.172;17.070;2023-06-14T12:45:08;27.90;36.60
14877;DHT22;69691;48.172;17.070;2023-06-14T12:47:34;28.10;35.40
14877;DHT22;69691;48.172;17.070;2023-06-14T12:50:01;28.30;34.90
14877;DHT22;69691;48.172;17.070;2023-06-14T12:52:27;28.30;34.60
14877;DHT22;69691;48.172;17.070;2023-06-14T12:54:53;28.30;35.00
14877;DHT22;69691;48.172;17.070;2023-06-14T12:57:19;28.30;35.80
14877;DHT22;69691;48.172;17.070;2023-06-14T12:59:44;28.10;37.60
14877;DHT22;69691;48.172;17.070;2023-06-14T13:02:16;28.00;35.60
14877;DHT22;69691;48.172;17.070;2023-06-14T13:04:43;27.80;34.90
14877;DHT22;69691;48.172;17.070;2023-06-14T13:07:09;27.60;35.00
14877;DHT22;69691;48.172;17.070;2023-06-14T13:09:40;27.60;36.00
14877;DHT22;69691;48.172;17.070;2023-06-14T13:12:08;27.60;36.50
14877;DHT22;69691;48.172;17.070;2023-06-14T13:14:39;27.50;35.70
14877;DHT22;69691;48.172;17.070;2023-06-14T13:17:07;27.50;36.00
14877;DHT22;69691;48.172;17.070;2023-06-14T13:19:34;27.20;36.00
14877;DHT22;69691;48.172;17.070;2023-06-14T13:22:00;27.10;38.50
14877;DHT22;69691;48.172;17.070;2023-06-14T13:24:26;26.80;38.30
14877;DHT22;69691;48.172;17.070;2023-06-14T13:26:52;26.40;39.20
14877;DHT22;69691;48.172;17.070;2023-06-14T13:29:18;26.00;40.50
14877;DHT22;69691;48.172;17.070;2023-06-14T13:31:43;25.70;40.40
14877;DHT22;69691;48.172;17.070;2023-06-14T13:34:11;25.40;40.40
14877;DHT22;69691;48.172;17.070;2023-06-14T13:36:36;25.10;40.20
14877;DHT22;69691;48.172;17.070;2023-06-14T13:39:02;25.00;40.50
14877;DHT22;69691;48.172;17.070;2023-06-14T13:41:28;24.90;41.60
14877;DHT22;69691;48.172;17.070;2023-06-14T13:43:59;24.80;43.10
14877;DHT22;69691;48.172;17.070;2023-06-14T13:46:26;24.80;45.60
14877;DHT22;69691;48.172;17.070;2023-06-14T13:48:52;24.70;47.20
14877;DHT22;69691;48.172;17.070;2023-06-14T13:51:18;24.60;48.70
14877;DHT22;69691;48.172;17.070;2023-06-14T13:53:50;24.50;50.00
14877;DHT22;69691;48.172;17.070;2023-06-14T13:56:17;24.40;50.80
14877;DHT22;69691;48.172;17.070;2023-06-14T13:58:44;24.40;50.70
14877;DHT22;69691;48.172;17.070;2023-06-14T14:01:11;24.30;50.80
14877;DHT22;69691;48.172;17.070;2023-06-14T14:03:37;24.40;50.50
14877;DHT22;69691;48.172;17.070;2023-06-14T14:06:03;24.60;47.90
14877;DHT22;69691;48.172;17.070;2023-06-14T14:08:30;24.80;43.70
14877;DHT22;69691;48.172;17.070;2023-06-14T14:10:56;25.00;43.60
14877;DHT22;69691;48.172;17.070;2023-06-14T14:13:22;25.20;47.30
14877;DHT22;69691;48.172;17.070;2023-06-14T14:15:48;25.40;44.20
14877;DHT22;69691;48.172;17.070;2023-06-14T14:18:16;25.50;41.90
14877;DHT22;69691;48.172;17.070;2023-06-14T14:20:42;25.70;41.10
14877;DHT22;69691;48.172;17.070;2023-06-14T14:23:08;25.80;40.40
14877;DHT22;69691;48.172;17.070;2023-06-14T14:25:34;26.00;41.40
14877;DHT22;69691;48.172;17.070;2023-06-14T14:28:01;26.00;40.20
14877;DHT22;69691;48.172;17.070;2023-06-14T14:30:26;26.10;40.20
14877;DHT22;69691;48.172;17.070;2023-06-14T14:32:53;26.20;39.50
14877;DHT22;69691;48.172;17.070;2023-06-14T14:35:19;26.30;38.70
14877;DHT22;69691;48.172;17.070;2023-06-14T14:37:45;26.40;38.90
14877;DHT22;69691;48.172;17.070;2023-06-14T14:40:12;26.60;39.40
14877;DHT22;69691;48.172;17.070;2023-06-14T14:42:38;26.70;39.30
14877;DHT22;69691;48.172;17.070;2023-06-14T14:45:04;26.90;39.70
14877;DHT22;69691;48.172;17.070;2023-06-14T14:47:30;27.10;38.80
14877;DHT22;69691;48.172;17.070;2023-06-14T14:49:56;27.20;38.70
14877;DHT22;69691;48.172;17.070;2023-06-14T14:52:22;27.40;38.50
14877;DHT22;69691;48.172;17.070;2023-06-14T14:54:47;27.60;40.00
14877;DHT22;69691;48.172;17.070;2023-06-14T14:57:13;27.70;38.80
14877;DHT22;69691;48.172;17.070;2023-06-14T14:59:39;27.90;38.40
14877;DHT22;69691;48.172;17.070;2023-06-14T15:02:05;28.10;37.90
14877;DHT22;69691;48.172;17.070;2023-06-14T15:04:31;28.30;38.10
14877;DHT22;69691;48.172;17.070;2023-06-14T15:06:57;28.40;37.10
14877;DHT22;69691;48.172;17.070;2023-06-14T15:09:23;28.40;36.90
14877;DHT22;69691;48.172;17.070;2023-06-14T15:11:49;28.40;37.60
14877;DHT22;69691;48.172;17.070;2023-06-14T15:14:15;28.30;37.20
14877;DHT22;69691;48.172;17.070;2023-06-14T15:16:41;28.40;36.70
14877;DHT22;69691;48.172;17.070;2023-06-14T15:19:06;28.40;36.80
14877;DHT22;69691;48.172;17.070;2023-06-14T15:21:32;28.30;37.40
14877;DHT22;69691;48.172;17.070;2023-06-14T15:23:58;28.20;37.70
14877;DHT22;69691;48.172;17.070;2023-06-14T15:26:24;28.10;38.50